createdAt,value
2023-05-23T00:01:02.222Z,34.66
2023-05-23T00:03:28.941Z,34.79
2023-05-23T00:05:56.556Z,34.46
2023-05-23T00:08:23.257Z,34.24
2023-05-23T00:10:49.791Z,33.89
2023-05-23T00:13:16.339Z,34.00
2023-05-23T00:15:43.018Z,33.99
2023-05-23T00:18:11.174Z,34.15
2023-05-23T00:20:40.838Z,34.56
2023-05-23T00:23:09.349Z,34.54
2023-05-23T00:25:36.561Z,34.93
2023-05-23T00:28:04.785Z,34.91
2023-05-23T00:30:32.250Z,35.31
2023-05-23T00:32:59.048Z,35.36
2023-05-23T00:35:26.024Z,35.40
2023-05-23T00:37:52.666Z,35.56
2023-05-23T00:40:19.189Z,36.10
2023-05-23T00:42:46.233Z,36.24
2023-05-23T00:45:12.908Z,36.21
2023-05-23T00:47:42.995Z,36.63
2023-05-23T00:50:12.653Z,36.72
2023-05-23T00:52:39.470Z,37.12
2023-05-23T00:55:06.452Z,37.82
2023-05-23T00:57:34.868Z,38.09
2023-05-23T01:00:02.054Z,38.06
2023-05-23T01:02:30.112Z,38.24
2023-05-23T01:04:56.799Z,38.60
2023-05-23T01:07:23.400Z,38.51
2023-05-23T01:09:50.106Z,38.88
2023-05-23T01:12:31.026Z,39.26
2023-05-23T01:15:08.630Z,39.11
2023-05-23T01:17:44.959Z,38.50
2023-05-23T01:20:12.856Z,38.09
2023-05-23T01:23:02.670Z,37.65
2023-05-23T01:26:02.518Z,37.01
2023-05-23T01:28:35.585Z,37.41
2023-05-23T01:31:04.072Z,37.48
2023-05-23T01:33:32.337Z,37.58
2023-05-23T01:36:02.348Z,37.67
2023-05-23T01:38:28.857Z,37.80
2023-05-23T01:40:55.425Z,37.77
2023-05-23T01:43:22.869Z,37.72
2023-05-23T01:45:56.319Z,37.83
2023-05-23T01:48:23.993Z,37.78
2023-05-23T01:50:50.781Z,38.03
2023-05-23T01:53:21.377Z,37.93
2023-05-23T01:55:48.220Z,38.03
2023-05-23T01:58:14.835Z,37.90
2023-05-23T02:00:41.525Z,38.00
2023-05-23T02:03:08.891Z,38.43
2023-05-23T02:05:35.764Z,38.02
2023-05-23T02:08:02.423Z,37.76
2023-05-23T02:10:29.058Z,37.66
2023-05-23T02:12:55.645Z,37.66
2023-05-23T02:15:22.206Z,37.66
2023-05-23T02:17:48.879Z,37.83
2023-05-23T02:20:15.726Z,37.88
2023-05-23T02:22:42.261Z,38.01
2023-05-23T02:25:08.860Z,38.13
2023-05-23T02:27:35.443Z,38.16
2023-05-23T02:30:02.002Z,38.15
2023-05-23T02:32:30.180Z,38.55
2023-05-23T02:34:57.571Z,38.61
2023-05-23T02:37:24.306Z,38.50
2023-05-23T02:39:50.859Z,38.50
2023-05-23T02:42:17.409Z,38.49
2023-05-23T02:44:44.867Z,38.83
2023-05-23T02:47:11.443Z,38.71
2023-05-23T02:49:37.957Z,38.56
2023-05-23T02:52:05.792Z,38.38
2023-05-23T02:54:32.584Z,38.50
2023-05-23T02:56:59.430Z,38.72
2023-05-23T02:59:26.761Z,38.99
2023-05-23T03:01:53.508Z,38.87
2023-05-23T03:04:20.065Z,39.19
2023-05-23T03:06:47.687Z,39.00
2023-05-23T03:09:15.506Z,39.19
2023-05-23T03:11:42.125Z,39.20
2023-05-23T03:14:08.746Z,38.98
2023-05-23T03:16:35.394Z,39.39
2023-05-23T03:19:02.138Z,40.05
2023-05-23T03:21:29.560Z,39.90
2023-05-23T03:23:56.266Z,40.21
2023-05-23T03:26:23.044Z,40.60
2023-05-23T03:28:51.312Z,40.64
2023-05-23T03:31:19.388Z,40.45
2023-05-23T03:33:46.132Z,40.71
2023-05-23T03:36:12.768Z,40.88
2023-05-23T03:38:39.401Z,40.87
2023-05-23T03:41:06.198Z,40.82
2023-05-23T03:43:32.829Z,40.86
2023-05-23T03:45:59.723Z,41.21
2023-05-23T03:48:26.426Z,41.44
2023-05-23T03:50:53.501Z,41.67
2023-05-23T03:53:20.123Z,42.07
2023-05-23T03:55:46.907Z,42.34
2023-05-23T03:58:13.528Z,42.65
2023-05-23T04:00:42.824Z,42.95
2023-05-23T04:03:11.789Z,42.28
2023-05-23T04:05:40.214Z,42.20
2023-05-23T04:08:07.168Z,41.67
2023-05-23T04:10:34.106Z,41.59
2023-05-23T04:13:00.821Z,41.77
2023-05-23T04:15:28.161Z,42.06
2023-05-23T04:17:58.128Z,41.54
2023-05-23T04:20:26.255Z,41.54
2023-05-23T04:22:52.954Z,41.50
2023-05-23T04:25:20.304Z,41.88
2023-05-23T04:28:11.689Z,42.00
2023-05-23T04:30:38.735Z,42.20
2023-05-23T04:33:06.339Z,42.72
2023-05-23T04:35:34.324Z,42.83
2023-05-23T04:38:01.920Z,42.83
2023-05-23T04:40:29.558Z,42.68
2023-05-23T04:43:02.044Z,42.56
2023-05-23T04:45:44.108Z,42.48
2023-05-23T04:48:24.909Z,41.76
2023-05-23T04:50:52.657Z,41.67
2023-05-23T04:53:19.682Z,41.84
2023-05-23T04:55:47.326Z,41.71
2023-05-23T04:58:16.887Z,41.70
2023-05-23T05:00:44.149Z,41.82
2023-05-23T05:03:12.552Z,42.00
2023-05-23T05:05:43.134Z,41.89
2023-05-23T05:08:09.688Z,41.65
2023-05-23T05:10:36.245Z,42.20
2023-05-23T05:13:03.180Z,42.65
2023-05-23T05:15:37.171Z,42.32
2023-05-23T05:18:03.852Z,41.99
2023-05-23T05:20:30.480Z,42.08
2023-05-23T05:22:58.244Z,41.89
2023-05-23T05:25:24.933Z,42.02
2023-05-23T05:27:52.706Z,42.01
2023-05-23T05:30:20.657Z,41.75
2023-05-23T05:32:52.068Z,42.05
2023-05-23T05:35:18.653Z,42.39
2023-05-23T05:37:46.437Z,42.24
2023-05-23T05:40:13.336Z,42.06
2023-05-23T05:42:42.300Z,41.97
2023-05-23T05:45:11.503Z,42.15
2023-05-23T05:47:39.494Z,42.09
2023-05-23T05:50:07.873Z,42.37
2023-05-23T05:52:38.448Z,42.63
2023-05-23T05:55:13.384Z,42.46
2023-05-23T05:57:44.747Z,42.44
2023-05-23T06:00:19.188Z,42.40
2023-05-23T06:02:51.526Z,42.10
2023-05-23T06:05:29.017Z,41.98
2023-05-23T06:07:55.828Z,41.99
2023-05-23T06:10:22.404Z,41.92
2023-05-23T06:12:50.287Z,41.86
2023-05-23T06:15:17.469Z,41.68
2023-05-23T06:17:45.101Z,41.59
2023-05-23T06:20:12.344Z,41.10
2023-05-23T06:22:42.504Z,40.57
2023-05-23T06:25:09.241Z,41.07
2023-05-23T06:27:35.821Z,40.74
2023-05-23T06:30:03.445Z,40.91
2023-05-23T06:32:30.017Z,40.68
2023-05-23T06:34:57.832Z,40.64
2023-05-23T06:37:24.979Z,40.69
2023-05-23T06:39:51.486Z,40.78
2023-05-23T06:42:18.015Z,40.59
2023-05-23T06:45:01.214Z,40.34
2023-05-23T06:47:27.805Z,40.29
2023-05-23T06:49:54.351Z,40.40
2023-05-23T06:52:20.913Z,40.51
2023-05-23T06:54:47.584Z,40.45
2023-05-23T06:57:14.392Z,40.42
2023-05-23T06:59:40.944Z,40.38
2023-05-23T07:02:07.510Z,40.44
2023-05-23T07:04:34.740Z,40.50
2023-05-23T07:07:06.668Z,40.17
2023-05-23T07:09:33.526Z,40.25
2023-05-23T07:12:08.394Z,40.40
2023-05-23T07:14:38.315Z,40.16
2023-05-23T07:17:05.824Z,40.10
2023-05-23T07:19:33.513Z,40.19
2023-05-23T07:22:00.551Z,40.19
2023-05-23T07:24:27.389Z,40.36
2023-05-23T07:26:56.349Z,40.18
2023-05-23T07:29:23.341Z,40.25
2023-05-23T07:31:53.520Z,40.33
2023-05-23T07:34:21.992Z,40.21
2023-05-23T07:36:55.457Z,39.81
2023-05-23T07:39:24.415Z,39.62
2023-05-23T07:41:52.028Z,39.68
2023-05-23T07:44:21.572Z,39.61
2023-05-23T07:46:50.584Z,39.89
2023-05-23T07:49:17.278Z,40.12
2023-05-23T07:51:45.597Z,40.69
2023-05-23T07:54:18.329Z,41.24
2023-05-23T07:56:45.231Z,41.35
2023-05-23T07:59:13.478Z,41.16
2023-05-23T08:01:42.301Z,41.33
2023-05-23T08:04:12.651Z,41.10
2023-05-23T08:07:00.804Z,41.05
2023-05-23T08:09:41.088Z,41.03
2023-05-23T08:12:09.740Z,41.18
2023-05-23T08:14:49.744Z,41.57
2023-05-23T08:17:23.721Z,41.86
2023-05-23T08:19:51.652Z,41.65
2023-05-23T08:22:18.232Z,41.14
2023-05-23T08:24:44.755Z,40.89
2023-05-23T08:27:11.328Z,40.59
2023-05-23T08:29:38.463Z,41.86
2023-05-23T08:32:05.325Z,42.16
2023-05-23T08:34:32.988Z,42.00
2023-05-23T08:36:59.528Z,42.13
2023-05-23T08:39:26.323Z,42.44
2023-05-23T08:42:13.426Z,43.17
2023-05-23T08:44:40.716Z,44.11
2023-05-23T08:47:08.526Z,44.20
2023-05-23T08:49:47.836Z,44.40
2023-05-23T08:52:18.295Z,44.61
2023-05-23T08:54:48.171Z,44.41
2023-05-23T08:57:14.726Z,45.32
2023-05-23T08:59:46.978Z,44.79
2023-05-23T09:02:14.242Z,44.36
2023-05-23T09:04:41.299Z,44.58
2023-05-23T09:07:16.842Z,44.81
2023-05-23T09:09:44.476Z,44.56
2023-05-23T09:12:13.645Z,45.33
2023-05-23T09:14:41.143Z,45.57
2023-05-23T09:17:08.884Z,45.53
2023-05-23T09:19:41.011Z,45.46
2023-05-23T09:22:28.390Z,45.34
2023-05-23T09:25:09.306Z,45.40
2023-05-23T09:27:38.591Z,45.09
2023-05-23T09:30:09.493Z,45.27
2023-05-23T09:32:36.179Z,45.32
2023-05-23T09:35:08.435Z,45.89
2023-05-23T09:37:40.846Z,45.32
2023-05-23T09:40:13.210Z,45.29
2023-05-23T09:42:45.001Z,44.48
2023-05-23T09:45:12.553Z,44.56
2023-05-23T09:47:39.188Z,44.20
2023-05-23T09:50:06.398Z,43.55
2023-05-23T09:52:39.100Z,43.69
2023-05-23T09:55:06.803Z,43.19
2023-05-23T09:57:40.857Z,43.40
2023-05-23T10:00:14.199Z,44.42
2023-05-23T10:03:13.520Z,44.78
2023-05-23T10:05:48.261Z,46.21
2023-05-23T10:08:32.632Z,47.17
2023-05-23T10:11:14.404Z,47.24
2023-05-23T10:13:45.227Z,48.46
2023-05-23T10:16:26.854Z,48.15
2023-05-23T10:18:56.639Z,48.00
2023-05-23T10:21:46.727Z,47.94
2023-05-23T10:24:13.809Z,47.88
2023-05-23T10:26:40.648Z,47.38
2023-05-23T10:29:07.692Z,48.29
2023-05-23T10:31:35.094Z,47.79
2023-05-23T10:34:27.150Z,47.90
2023-05-23T10:36:59.758Z,47.20
2023-05-23T10:39:51.304Z,47.85
2023-05-23T10:42:47.676Z,47.78
2023-05-23T10:45:15.937Z,46.98
2023-05-23T10:47:42.544Z,46.89
2023-05-23T10:50:13.939Z,46.32
2023-05-23T10:52:41.431Z,46.39
2023-05-23T10:55:15.708Z,46.41
2023-05-23T10:57:43.898Z,46.03
2023-05-23T11:00:24.664Z,46.08
2023-05-23T11:02:57.768Z,46.39
2023-05-23T11:05:28.001Z,46.43
2023-05-23T11:08:35.430Z,45.96
2023-05-23T11:11:10.380Z,47.18
2023-05-23T11:13:56.806Z,46.76
2023-05-23T11:16:27.718Z,46.49
2023-05-23T11:19:14.272Z,46.75
2023-05-23T11:21:40.799Z,45.75
2023-05-23T11:24:09.532Z,45.62
2023-05-23T11:26:36.335Z,45.09
2023-05-23T11:29:05.759Z,44.95
2023-05-23T11:31:38.162Z,44.87
2023-05-23T11:34:05.398Z,44.94
2023-05-23T11:36:33.162Z,45.41
2023-05-23T11:39:03.587Z,45.17
2023-05-23T11:41:35.769Z,45.74
2023-05-23T11:44:02.544Z,45.18
2023-05-23T11:46:29.220Z,45.08
2023-05-23T11:48:56.369Z,45.78
2023-05-23T11:51:22.909Z,45.27
2023-05-23T11:53:49.468Z,45.48
2023-05-23T11:56:16.777Z,45.85
2023-05-23T11:58:45.174Z,46.47
2023-05-23T12:01:12.749Z,46.19
2023-05-23T12:03:51.703Z,46.63
2023-05-23T12:06:23.594Z,47.00
2023-05-23T12:08:50.691Z,47.21
2023-05-23T12:11:18.225Z,46.19
2023-05-23T12:13:45.348Z,46.98
2023-05-23T12:16:13.855Z,47.10
2023-05-23T12:18:40.515Z,46.46
2023-05-23T12:21:08.515Z,46.75
2023-05-23T12:23:35.976Z,46.49
2023-05-23T12:26:07.035Z,46.83
2023-05-23T12:28:45.672Z,46.25
2023-05-23T12:31:13.371Z,45.87
2023-05-23T12:33:41.324Z,45.41
2023-05-23T12:36:07.929Z,45.48
2023-05-23T12:38:38.197Z,45.65
2023-05-23T12:41:09.457Z,45.59
2023-05-23T12:43:41.884Z,45.69
2023-05-23T12:46:08.454Z,45.23
2023-05-23T12:48:35.768Z,45.35
2023-05-23T12:51:03.366Z,45.89
2023-05-23T12:53:29.941Z,46.53
2023-05-23T12:55:56.471Z,46.63
2023-05-23T12:58:23.614Z,47.21
2023-05-23T13:00:50.585Z,46.71
2023-05-23T13:03:18.266Z,47.64
2023-05-23T13:05:44.877Z,48.22
2023-05-23T13:08:12.375Z,48.40
2023-05-23T13:10:39.317Z,49.21
2023-05-23T13:13:05.917Z,50.27
2023-05-23T13:15:32.579Z,50.45
2023-05-23T13:17:59.180Z,50.41
2023-05-23T13:20:30.149Z,50.72
2023-05-23T13:22:57.196Z,51.58
2023-05-23T13:25:24.504Z,50.06
2023-05-23T13:27:51.081Z,51.01
2023-05-23T13:30:17.714Z,51.78
2023-05-23T13:32:44.293Z,52.26
2023-05-23T13:35:11.164Z,52.23
2023-05-23T13:37:37.840Z,51.79
2023-05-23T13:40:04.993Z,51.90
2023-05-23T13:42:31.512Z,52.10
2023-05-23T13:44:58.052Z,51.63
2023-05-23T13:47:24.533Z,51.32
2023-05-23T13:49:51.108Z,51.26
2023-05-23T13:52:17.592Z,50.98
2023-05-23T13:54:44.120Z,51.11
2023-05-23T13:57:10.527Z,51.72
2023-05-23T13:59:37.009Z,51.06
2023-05-23T14:02:03.568Z,51.11
2023-05-23T14:04:30.037Z,51.65
2023-05-23T14:06:56.439Z,50.65
2023-05-23T14:09:23.553Z,50.82
2023-05-23T14:11:52.129Z,50.72
2023-05-23T14:14:18.672Z,51.21
2023-05-23T14:16:45.176Z,50.64
2023-05-23T14:19:11.667Z,50.63
2023-05-23T14:21:38.968Z,51.47
2023-05-23T14:24:06.008Z,51.97
2023-05-23T14:26:32.459Z,51.83
2023-05-23T14:28:58.882Z,52.19
2023-05-23T14:31:25.375Z,52.91
2023-05-23T14:33:51.862Z,53.29
2023-05-23T14:36:18.653Z,53.28
2023-05-23T14:38:48.036Z,54.31
2023-05-23T14:41:14.603Z,54.91
2023-05-23T14:43:41.095Z,55.77
2023-05-23T14:46:07.737Z,57.28
2023-05-23T14:48:34.423Z,58.45
2023-05-23T14:51:01.859Z,58.22
2023-05-23T14:53:28.758Z,57.43
2023-05-23T14:55:55.645Z,57.52
2023-05-23T14:58:23.020Z,57.40
2023-05-23T15:00:49.466Z,57.46
2023-05-23T15:03:16.003Z,57.26
2023-05-23T15:05:43.931Z,56.77
2023-05-23T15:08:12.006Z,57.08
2023-05-23T15:10:38.468Z,57.36
2023-05-23T15:13:04.956Z,56.07
2023-05-23T15:15:37.392Z,56.23
2023-05-23T15:18:06.908Z,55.75
2023-05-23T15:20:34.101Z,55.76
2023-05-23T15:23:00.523Z,56.49
2023-05-23T15:25:43.340Z,55.96
2023-05-23T15:28:14.289Z,56.48
2023-05-23T15:30:41.140Z,55.06
2023-05-23T15:33:07.766Z,55.51
2023-05-23T15:35:34.258Z,55.48
2023-05-23T15:38:00.870Z,55.43
2023-05-23T15:40:27.628Z,56.00
2023-05-23T15:42:54.084Z,55.59
2023-05-23T15:45:20.779Z,56.46
2023-05-23T15:47:47.203Z,55.57
2023-05-23T15:50:14.415Z,55.85
2023-05-23T15:52:40.995Z,54.86
2023-05-23T15:55:07.845Z,54.92
2023-05-23T15:57:34.363Z,54.94
2023-05-23T16:00:01.014Z,55.06
2023-05-23T16:02:27.814Z,54.95
2023-05-23T16:04:54.360Z,55.31
2023-05-23T16:07:20.797Z,55.66
2023-05-23T16:09:47.218Z,56.10
2023-05-23T16:12:13.708Z,55.78
2023-05-23T16:14:40.145Z,56.01
2023-05-23T16:17:07.652Z,56.63
2023-05-23T16:19:35.267Z,56.54
2023-05-23T16:22:01.908Z,56.29
2023-05-23T16:24:28.450Z,55.85
2023-05-23T16:26:54.874Z,56.98
2023-05-23T16:29:21.385Z,56.38
2023-05-23T16:31:47.929Z,57.10
2023-05-23T16:34:14.699Z,56.77
2023-05-23T16:36:41.533Z,56.69
2023-05-23T16:39:08.065Z,57.11
2023-05-23T16:41:34.549Z,58.23
2023-05-23T16:44:01.141Z,57.07
2023-05-23T16:48:54.189Z,57.54
2023-05-23T16:51:20.676Z,57.78
2023-05-23T16:53:47.321Z,57.55
2023-05-23T16:56:13.809Z,58.19
2023-05-23T16:58:40.294Z,58.35
2023-05-23T17:01:07.560Z,58.24
2023-05-23T17:03:34.359Z,57.48
2023-05-23T17:06:01.408Z,58.46
2023-05-23T17:08:27.819Z,57.90
2023-05-23T17:10:54.276Z,58.12
2023-05-23T17:13:20.728Z,58.28
2023-05-23T17:15:47.195Z,58.31
2023-05-23T17:18:13.731Z,57.77
2023-05-23T17:20:40.492Z,59.38
2023-05-23T17:23:07.097Z,58.63
2023-05-23T17:25:33.520Z,58.13
2023-05-23T17:27:59.952Z,58.39
2023-05-23T17:30:26.458Z,58.07
2023-05-23T17:32:52.928Z,58.17
2023-05-23T17:35:19.409Z,58.09
2023-05-23T17:37:45.906Z,57.54
2023-05-23T17:40:13.147Z,57.94
2023-05-23T17:42:40.725Z,58.30
2023-05-23T17:45:09.335Z,57.95
2023-05-23T17:47:36.003Z,58.43
2023-05-23T17:50:06.329Z,57.57
2023-05-23T17:52:32.951Z,58.01
2023-05-23T17:54:59.416Z,58.02
2023-05-23T17:57:26.312Z,57.85
2023-05-23T17:59:52.751Z,57.91
2023-05-23T18:02:19.274Z,57.64
2023-05-23T18:04:45.726Z,57.46
2023-05-23T18:07:12.816Z,57.56
2023-05-23T18:09:39.411Z,57.21
2023-05-23T18:12:06.166Z,57.60
2023-05-23T18:14:32.666Z,57.42
2023-05-23T18:16:59.153Z,57.38
2023-05-23T18:19:25.712Z,57.33
2023-05-23T18:21:52.243Z,57.71
2023-05-23T18:24:18.659Z,57.74
2023-05-23T18:26:45.083Z,58.16
2023-05-23T18:29:11.660Z,57.50
2023-05-23T18:31:38.166Z,57.43
2023-05-23T18:34:04.846Z,57.03
2023-05-23T18:36:32.668Z,57.09
2023-05-23T18:38:59.185Z,56.98
2023-05-23T18:41:27.937Z,56.99
2023-05-23T18:43:55.274Z,57.21
2023-05-23T18:46:24.022Z,57.63
2023-05-23T18:48:50.995Z,57.28
2023-05-23T18:51:17.860Z,57.53
2023-05-23T18:53:44.275Z,57.07
2023-05-23T18:56:10.868Z,57.07
2023-05-23T18:58:37.266Z,56.79
2023-05-23T19:01:03.994Z,56.33
2023-05-23T19:03:32.020Z,56.46
2023-05-23T19:06:02.127Z,56.41
2023-05-23T19:08:32.034Z,56.65
2023-05-23T19:10:59.412Z,56.80
2023-05-23T19:13:26.590Z,56.90
2023-05-23T19:15:53.376Z,56.53
2023-05-23T19:18:20.227Z,56.53
2023-05-23T19:20:47.834Z,56.58
2023-05-23T19:23:14.368Z,56.35
2023-05-23T19:25:42.474Z,56.83
2023-05-23T19:28:09.032Z,56.41
2023-05-23T19:30:36.006Z,56.47
2023-05-23T19:33:02.557Z,56.89
2023-05-23T19:35:29.239Z,56.30
2023-05-23T19:37:56.582Z,56.25
2023-05-23T19:40:24.092Z,55.46
2023-05-23T19:42:50.635Z,54.93
2023-05-23T19:45:18.450Z,54.74
2023-05-23T19:47:45.133Z,55.10
2023-05-23T19:50:14.622Z,54.40
2023-05-23T19:52:41.982Z,53.85
2023-05-23T19:55:09.091Z,54.17
2023-05-23T19:57:36.300Z,53.54
2023-05-23T20:00:03.563Z,53.85
2023-05-23T20:02:30.936Z,53.78
2023-05-23T20:04:57.346Z,53.38
2023-05-23T20:07:23.954Z,53.62
2023-05-23T20:09:50.351Z,53.44
2023-05-23T20:12:16.856Z,53.13
2023-05-23T20:14:43.260Z,53.26
2023-05-23T20:17:09.690Z,52.84
2023-05-23T20:19:36.091Z,52.34
2023-05-23T20:22:02.522Z,52.47
2023-05-23T20:24:31.713Z,52.23
2023-05-23T20:26:58.412Z,52.14
2023-05-23T20:29:24.853Z,52.14
2023-05-23T20:31:51.604Z,51.18
2023-05-23T20:34:18.135Z,51.66
2023-05-23T20:36:44.803Z,51.23
2023-05-23T20:39:11.659Z,51.03
2023-05-23T20:41:42.168Z,50.94
2023-05-23T20:44:12.456Z,50.50
2023-05-23T20:46:40.273Z,50.89
2023-05-23T20:49:07.350Z,50.55
2023-05-23T20:51:35.337Z,51.05
2023-05-23T20:54:03.218Z,51.15
2023-05-23T20:56:30.934Z,51.12
2023-05-23T20:59:00.197Z,51.20
2023-05-23T21:01:27.491Z,50.78
2023-05-23T21:03:54.741Z,51.07
2023-05-23T21:06:21.274Z,51.20
2023-05-23T21:08:47.730Z,50.57
2023-05-23T21:11:14.142Z,51.12
2023-05-23T21:13:40.797Z,51.09
2023-05-23T21:16:08.674Z,50.50
2023-05-23T21:18:35.191Z,50.62
2023-05-23T21:21:01.621Z,50.48
2023-05-23T21:23:28.059Z,50.51
2023-05-23T21:25:55.049Z,50.47
2023-05-23T21:28:21.507Z,50.83
2023-05-23T21:30:48.248Z,51.23
2023-05-23T21:33:14.769Z,50.94
2023-05-23T21:35:41.627Z,50.74
2023-05-23T21:38:08.220Z,50.45
2023-05-23T21:40:34.605Z,51.13
2023-05-23T21:43:01.040Z,50.43
2023-05-23T21:45:27.453Z,50.49
2023-05-23T21:47:53.956Z,50.20
2023-05-23T21:50:20.387Z,49.66
2023-05-23T21:52:46.819Z,49.13
2023-05-23T21:55:13.296Z,48.83
2023-05-23T21:57:39.762Z,48.56
2023-05-23T22:00:12.161Z,48.83
2023-05-23T22:02:41.565Z,48.56
2023-05-23T22:05:08.777Z,48.41
2023-05-23T22:07:35.275Z,48.21
2023-05-23T22:10:01.910Z,47.76
2023-05-23T22:12:28.775Z,47.74
2023-05-23T22:14:55.636Z,47.86
2023-05-23T22:17:22.564Z,47.51
2023-05-23T22:19:51.982Z,47.37
2023-05-23T22:22:19.125Z,47.50
2023-05-23T22:24:45.561Z,47.27
2023-05-23T22:27:12.255Z,47.53
2023-05-23T22:29:38.698Z,47.84
2023-05-23T22:32:05.427Z,48.09
2023-05-23T22:34:31.909Z,48.06
2023-05-23T22:37:00.273Z,47.75
2023-05-23T22:39:27.160Z,47.75
2023-05-23T22:41:53.841Z,47.97
2023-05-23T22:44:20.481Z,48.18
2023-05-23T22:46:46.945Z,47.54
2023-05-23T22:49:13.506Z,47.66
2023-05-23T22:51:40.063Z,48.27
2023-05-23T22:54:06.705Z,48.23
2023-05-23T22:56:33.147Z,48.29
2023-05-23T22:58:59.617Z,48.32
2023-05-23T23:01:26.298Z,48.72
2023-05-23T23:03:52.878Z,48.40
2023-05-23T23:06:21.018Z,48.50
2023-05-23T23:08:47.654Z,48.69
2023-05-23T23:11:14.142Z,48.31
2023-05-23T23:13:40.568Z,49.02
2023-05-23T23:16:08.630Z,49.03
2023-05-23T23:18:35.109Z,48.63
2023-05-23T23:21:01.640Z,49.06
2023-05-23T23:23:28.255Z,48.94
2023-05-23T23:25:54.850Z,49.23
2023-05-23T23:28:21.268Z,49.15
2023-05-23T23:30:47.950Z,49.34
2023-05-23T23:33:14.925Z,50.00
2023-05-23T23:35:41.910Z,49.75
2023-05-23T23:38:08.490Z,49.93
2023-05-23T23:40:34.948Z,49.97
2023-05-23T23:43:01.570Z,49.93
2023-05-23T23:45:28.059Z,49.67
2023-05-23T23:47:54.598Z,49.74
2023-05-23T23:50:21.382Z,49.74
2023-05-23T23:52:47.851Z,49.65
2023-05-23T23:55:14.254Z,50.04
2023-05-23T23:57:40.666Z,49.76
